Accueil
METAR-TAF:

METAR-TAF

Aéroports :

Aéroport international de Guilin Liangjiang

Guilin, Chine

latitude: 25-20N, longitude: 110-18E, altitude: 166 m

Observation

Le bulletin a été fait il y a 26 minutes, à 00:00 UTC
Vent calme
Température 14°C
Humidité 100%
Pression 1016 hPa
Visibilité: 3400 m
brume

METAR: ZGKL 120000Z 00000MPS 3400 BR NSC 14/14 Q1016 NOSIG

Heure: 08:26 (00:26 UTC)

Prévision

Le bulletin a été fait il y a 5 heures et 11 minutes, à 19:15 UTC
Prévision valable du 12 à 00 UTC au 12 à 24 UTC
Vent 6 kt de nord-est
Visibilité: 4000 m
brume
Temporairement
du 12 à 00 UTC au 12 à 02 UTC
Visibilité: 2000 m

TAF: ZGKL 111915Z 1200/1224 05003MPS 4000 BR NSC TX27/1207Z TN11/1222Z TEMPO 1200/1202 2000

Observations et prévisions météorologiques de plus de 4000 aéroports (messages METAR et TAF).

Les stations disponibles sont représentées par des disques jaunes et rouges sur la carte.

Passer la souris dessus pour voir le nom de la station.

Cliquer dessus pour voir les observations et prévisions météorologiques.

Pour changer de carte: cliquez sur les boutons verts avec une croix noire pour zoomer, sur le bouton vert avec un tiret pour effectuer un zoom arrière, ou sur les flèches vertes pour les cartes adjacentes.


METAR-TAF: